Time,TemperatureF,DewpointF,PressureIn,WindDirection,WindDirectionDegrees,WindSpeedMPH,WindSpeedGustMPH,Humidity,HourlyPrecipIn,Conditions,Clouds,dailyrainin,SoftwareType,DateUTC
2013-04-25 00:14:00,21.2,13.3,29.92,NNW,337,0.0,-999.0,71,-99.99,,,0.00,Acu-Link.com,2013-04-25 06:14:00,
2013-04-25 00:29:00,20.1,14.1,29.93,West,270,0.0,-999.0,77,-99.99,,,0.00,Acu-Link.com,2013-04-25 06:29:00,
2013-04-25 00:45:00,20.5,14.5,29.92,NW,315,0.0,-999.0,77,-99.99,,,0.00,Acu-Link.com,2013-04-25 06:45:00,
2013-04-25 01:01:00,19.4,14.5,29.92,SSE,157,0.0,-999.0,81,-99.99,,,0.00,Acu-Link.com,2013-04-25 07:01:00,
2013-04-25 01:17:00,19.0,14.4,29.91,WSW,247,1.1,-999.0,82,-99.99,,,0.00,Acu-Link.com,2013-04-25 07:17:00,
2013-04-25 01:32:00,20.3,19.1,29.91,SW,225,2.7,-999.0,95,-99.99,,,0.00,Acu-Link.com,2013-04-25 07:32:00,
2013-04-25 01:47:00,20.8,15.6,29.91,SW,225,0.0,-999.0,80,-99.99,,,0.00,Acu-Link.com,2013-04-25 07:47:00,
2013-04-25 02:03:00,21.0,17.2,29.91,NE,45,2.7,-999.0,85,-99.99,,,0.00,Acu-Link.com,2013-04-25 08:03:00,
2013-04-25 02:18:00,20.8,17.0,29.91,NE,45,0.0,-999.0,85,-99.99,,,0.00,Acu-Link.com,2013-04-25 08:18:00,
2013-04-25 02:33:00,20.7,16.1,29.90,ENE,67,0.0,-999.0,82,-99.99,,,0.00,Acu-Link.com,2013-04-25 08:33:00,
2013-04-25 02:48:00,20.8,17.0,29.89,NE,45,2.2,-999.0,85,-99.99,,,0.00,Acu-Link.com,2013-04-25 08:48:00,
2013-04-25 03:04:00,19.9,16.4,29.89,NE,45,0.0,-999.0,86,-99.99,,,0.00,Acu-Link.com,2013-04-25 09:04:00,
2013-04-25 03:19:00,19.4,15.6,29.89,ENE,67,0.0,-999.0,85,-99.99,,,0.00,Acu-Link.com,2013-04-25 09:19:00,
2013-04-25 03:34:00,18.7,14.7,29.90,WNW,292,0.0,-999.0,84,-99.99,,,0.00,Acu-Link.com,2013-04-25 09:34:00,
2013-04-25 03:49:00,18.5,16.1,29.91,NE,45,0.0,-999.0,90,-99.99,,,0.00,Acu-Link.com,2013-04-25 09:49:00,
2013-04-25 04:04:00,18.5,16.6,29.91,NE,45,0.0,-999.0,92,-99.99,,,0.00,Acu-Link.com,2013-04-25 10:04:00,
2013-04-25 04:20:00,19.0,17.3,29.91,NNE,22,2.2,-999.0,93,-99.99,,,0.00,Acu-Link.com,2013-04-25 10:20:00,
2013-04-25 04:35:00,19.6,16.6,29.92,North,0,0.0,-999.0,88,-99.99,,,0.00,Acu-Link.com,2013-04-25 10:35:00,
2013-04-25 04:50:00,20.1,18.4,29.91,ENE,67,2.7,-999.0,93,-99.99,,,0.00,Acu-Link.com,2013-04-25 10:50:00,
2013-04-25 05:07:00,20.1,19.1,29.91,NE,45,0.0,-999.0,96,-99.99,,,0.00,Acu-Link.com,2013-04-25 11:07:00,
2013-04-25 05:22:00,20.3,18.4,29.90,WNW,292,0.0,-999.0,92,-99.99,,,0.00,Acu-Link.com,2013-04-25 11:22:00,
2013-04-25 05:37:00,20.7,18.8,29.90,NE,45,0.0,-999.0,92,-99.99,,,0.00,Acu-Link.com,2013-04-25 11:37:00,
2013-04-25 05:52:00,20.7,20.2,29.90,SE,135,0.0,-999.0,98,-99.99,,,0.00,Acu-Link.com,2013-04-25 11:52:00,
2013-04-25 06:08:00,19.8,19.3,29.91,WNW,292,0.0,-999.0,98,-99.99,,,0.00,Acu-Link.com,2013-04-25 12:08:00,
2013-04-25 06:23:00,19.0,18.5,29.90,NE,45,0.0,-999.0,98,-99.99,,,0.00,Acu-Link.com,2013-04-25 12:23:00,
2013-04-25 06:39:00,19.9,19.4,29.91,West,270,0.0,-999.0,98,-99.99,,,0.00,Acu-Link.com,2013-04-25 12:39:00,
2013-04-25 06:54:00,24.3,20.7,29.91,East,90,0.0,-999.0,86,-99.99,,,0.00,Acu-Link.com,2013-04-25 12:54:00,
2013-04-25 07:09:00,25.7,21.3,29.91,ESE,112,1.1,-999.0,83,-99.99,,,0.00,Acu-Link.com,2013-04-25 13:09:00,
2013-04-25 07:25:00,26.1,20.5,29.91,NE,45,0.0,-999.0,79,-99.99,,,0.00,Acu-Link.com,2013-04-25 13:25:00,
2013-04-25 07:40:00,28.9,22.3,29.92,ENE,67,0.0,-999.0,76,-99.99,,,0.00,Acu-Link.com,2013-04-25 13:40:00,
2013-04-25 08:00:00,29.7,22.4,29.92,ESE,112,0.0,-999.0,74,-99.99,,,0.00,Acu-Link.com,2013-04-25 14:00:00,
2013-04-25 08:15:00,40.8,26.3,29.91,SE,135,1.1,-999.0,56,-99.99,,,0.00,Acu-Link.com,2013-04-25 14:15:00,
2013-04-25 08:30:00,41.4,24.6,29.91,SSE,157,2.2,-999.0,51,-99.99,,,0.00,Acu-Link.com,2013-04-25 14:30:00,
2013-04-25 08:45:00,39.4,22.8,29.90,SSW,202,0.0,-999.0,51,-99.99,,,0.00,Acu-Link.com,2013-04-25 14:45:00,
2013-04-25 09:01:00,40.3,23.2,29.90,South,180,3.7,-999.0,50,-99.99,,,0.00,Acu-Link.com,2013-04-25 15:01:00,
2013-04-25 09:16:00,41.0,22.3,29.88,NE,45,3.2,-999.0,47,-99.99,,,0.00,Acu-Link.com,2013-04-25 15:16:00,
2013-04-25 09:31:00,43.3,23.4,29.88,NE,45,3.7,-999.0,45,-99.99,,,0.00,Acu-Link.com,2013-04-25 15:31:00,
2013-04-25 09:46:00,42.1,22.3,29.87,NW,315,1.1,-999.0,45,-99.99,,,0.00,Acu-Link.com,2013-04-25 15:46:00,
2013-04-25 10:01:00,45.0,22.7,29.87,South,180,3.2,-999.0,41,-99.99,,,0.00,Acu-Link.com,2013-04-25 16:01:00,
2013-04-25 10:16:00,46.2,23.2,29.86,NNE,22,3.7,-999.0,40,-99.99,,,0.00,Acu-Link.com,2013-04-25 16:16:00,
2013-04-25 10:32:00,49.6,23.8,29.85,NE,45,3.7,-999.0,36,-99.99,,,0.00,Acu-Link.com,2013-04-25 16:32:00,
2013-04-25 10:47:00,51.3,23.9,29.84,NE,45,5.8,-999.0,34,-99.99,,,0.00,Acu-Link.com,2013-04-25 16:47:00,
2013-04-25 11:02:00,53.1,25.5,29.83,NE,45,3.2,-999.0,34,-99.99,,,0.00,Acu-Link.com,2013-04-25 17:02:00,
2013-04-25 11:18:00,53.1,20.9,29.82,South,180,2.7,-999.0,28,-99.99,,,0.00,Acu-Link.com,2013-04-25 17:18:00,
2013-04-25 11:33:00,58.3,22.6,29.82,ESE,112,6.3,-999.0,25,-99.99,,,0.00,Acu-Link.com,2013-04-25 17:33:00,
2013-04-25 11:48:00,58.1,21.5,29.80,NNE,22,4.2,-999.0,24,-99.99,,,0.00,Acu-Link.com,2013-04-25 17:48:00,
2013-04-25 12:04:00,57.6,20.1,29.79,WSW,247,3.2,-999.0,23,-99.99,,,0.00,Acu-Link.com,2013-04-25 18:04:00,
2013-04-25 12:19:00,60.3,-7.2,29.78,South,180,4.7,-999.0,6,-99.99,,,0.00,Acu-Link.com,2013-04-25 18:19:00,
2013-04-25 12:35:00,63.0,20.1,29.76,SSW,202,5.8,-999.0,19,-99.99,,,0.00,Acu-Link.com,2013-04-25 18:35:00,
2013-04-25 12:50:00,63.0,23.6,29.74,WNW,292,5.3,-999.0,22,-99.99,,,0.00,Acu-Link.com,2013-04-25 18:50:00,
2013-04-25 13:05:00,63.7,23.0,29.74,SW,225,4.2,-999.0,21,-99.99,,,0.00,Acu-Link.com,2013-04-25 19:05:00,
2013-04-25 13:20:00,64.4,20.0,29.72,West,270,4.7,-999.0,18,-99.99,,,0.00,Acu-Link.com,2013-04-25 19:20:00,
2013-04-25 13:36:00,65.3,7.4,29.71,West,270,13.0,-999.0,10,-99.99,,,0.00,Acu-Link.com,2013-04-25 19:36:00,
2013-04-25 13:51:00,65.5,24.5,29.70,SSW,202,5.8,-999.0,21,-99.99,,,0.00,Acu-Link.com,2013-04-25 19:51:00,
2013-04-25 14:07:00,64.2,15.6,29.70,WSW,247,10.9,-999.0,15,-99.99,,,0.00,Acu-Link.com,2013-04-25 20:07:00,
2013-04-25 14:22:00,66.4,25.3,29.69,West,270,5.3,-999.0,21,-99.99,,,0.00,Acu-Link.com,2013-04-25 20:22:00,
2013-04-25 14:47:00,62.2,24.0,29.69,SW,225,7.8,-999.0,23,-99.99,,,0.00,Acu-Link.com,2013-04-25 20:47:00,
2013-04-25 15:15:00,61.5,22.3,29.69,WSW,247,14.5,-999.0,22,-99.99,,,0.00,Acu-Link.com,2013-04-25 21:15:00,
2013-04-25 15:31:00,59.9,25.8,29.69,SW,225,6.3,-999.0,27,-99.99,,,0.00,Acu-Link.com,2013-04-25 21:31:00,
2013-04-25 15:46:00,58.1,26.0,29.69,SSW,202,4.2,-999.0,29,-99.99,,,0.00,Acu-Link.com,2013-04-25 21:46:00,
2013-04-25 16:15:00,57.6,28.7,29.68,South,180,10.9,-999.0,33,-99.99,,,0.00,Acu-Link.com,2013-04-25 22:15:00,
2013-04-25 16:43:00,58.1,30.6,29.69,SSW,202,15.5,-999.0,35,-99.99,,,0.00,Acu-Link.com,2013-04-25 22:43:00,
2013-04-25 17:00:00,57.4,31.3,29.69,SSW,202,10.4,-999.0,37,-99.99,,,0.00,Acu-Link.com,2013-04-25 23:00:00,
2013-04-25 17:17:00,55.8,29.9,29.69,SSW,202,13.5,-999.0,37,-99.99,,,0.00,Acu-Link.com,2013-04-25 23:17:00,
2013-04-25 17:35:00,54.5,30.1,29.69,SW,225,8.9,-999.0,39,-99.99,,,0.00,Acu-Link.com,2013-04-25 23:35:00,
2013-04-25 17:50:00,55.8,29.9,29.69,SW,225,6.3,-999.0,37,-99.99,,,0.00,Acu-Link.com,2013-04-25 23:50:00,
2013-04-25 18:05:00,56.3,30.4,29.68,SSW,202,6.8,-999.0,37,-99.99,,,0.00,Acu-Link.com,2013-04-26 00:05:00,
2013-04-25 18:20:00,56.7,28.7,29.68,SW,225,2.2,-999.0,34,-99.99,,,0.00,Acu-Link.com,2013-04-26 00:20:00,
2013-04-25 18:36:00,57.4,29.3,29.68,WSW,247,6.3,-999.0,34,-99.99,,,0.00,Acu-Link.com,2013-04-26 00:36:00,
2013-04-25 18:51:00,55.8,27.9,29.68,SW,225,3.2,-999.0,34,-99.99,,,0.00,Acu-Link.com,2013-04-26 00:51:00,
2013-04-25 19:06:00,55.4,26.0,29.69,South,180,2.2,-999.0,32,-99.99,,,0.00,Acu-Link.com,2013-04-26 01:06:00,
2013-04-25 19:21:00,52.5,28.9,29.68,SSW,202,5.8,-999.0,40,-99.99,,,0.00,Acu-Link.com,2013-04-26 01:21:00,
2013-04-25 19:37:00,50.9,29.8,29.68,South,180,2.7,-999.0,44,-99.99,,,0.00,Acu-Link.com,2013-04-26 01:37:00,
2013-04-25 19:52:00,48.0,30.3,29.69,South,180,4.2,-999.0,50,-99.99,,,0.00,Acu-Link.com,2013-04-26 01:52:00,
2013-04-25 20:07:00,46.6,29.9,29.70,SSW,202,1.7,-999.0,52,-99.99,,,0.00,Acu-Link.com,2013-04-26 02:07:00,
2013-04-25 20:22:00,44.2,29.5,29.71,SW,225,1.1,-999.0,56,-99.99,,,0.00,Acu-Link.com,2013-04-26 02:22:00,
2013-04-25 20:38:00,43.0,29.7,29.71,SSW,202,2.2,-999.0,59,-99.99,,,0.00,Acu-Link.com,2013-04-26 02:38:00,
2013-04-25 20:53:00,41.7,28.9,29.73,SSW,202,0.0,-999.0,60,-99.99,,,0.00,Acu-Link.com,2013-04-26 02:53:00,
2013-04-25 21:08:00,40.8,28.8,29.73,North,0,0.0,-999.0,62,-99.99,,,0.00,Acu-Link.com,2013-04-26 03:08:00,
2013-04-25 21:24:00,40.5,28.9,29.75,NNW,337,0.0,-999.0,63,-99.99,,,0.00,Acu-Link.com,2013-04-26 03:24:00,
2013-04-25 21:39:00,40.1,29.3,29.76,NE,45,2.7,-999.0,65,-99.99,,,0.00,Acu-Link.com,2013-04-26 03:39:00,
2013-04-25 21:54:00,39.6,29.2,29.75,East,90,0.0,-999.0,66,-99.99,,,0.00,Acu-Link.com,2013-04-26 03:54:00,
2013-04-25 22:09:00,39.0,29.0,29.77,SE,135,0.0,-999.0,67,-99.99,,,0.00,Acu-Link.com,2013-04-26 04:09:00,
2013-04-25 22:25:00,38.3,29.0,29.76,East,90,1.7,-999.0,69,-99.99,,,0.00,Acu-Link.com,2013-04-26 04:25:00,
2013-04-25 22:40:00,37.8,28.9,29.78,NNW,337,1.7,-999.0,70,-99.99,,,0.00,Acu-Link.com,2013-04-26 04:40:00,
2013-04-25 22:55:00,39.4,28.6,29.78,NNE,22,3.2,-999.0,65,-99.99,,,0.00,Acu-Link.com,2013-04-26 04:55:00,
2013-04-25 23:10:00,36.9,27.7,29.78,NE,45,1.1,-999.0,69,-99.99,,,0.00,Acu-Link.com,2013-04-26 05:10:00,
2013-04-25 23:25:00,36.5,28.0,29.79,NNW,337,2.2,-999.0,71,-99.99,,,0.00,Acu-Link.com,2013-04-26 05:25:00,
2013-04-25 23:41:00,37.2,26.5,29.78,NNW,337,3.7,-999.0,65,-99.99,,,0.00,Acu-Link.com,2013-04-26 05:41:00,
2013-04-25 23:56:00,35.2,26.8,29.78,SSW,202,0.0,-999.0,71,-99.99,,,0.00,Acu-Link.com,2013-04-26 05:56:00,